THY2408 LTFM-LTAI
Flight info
| Callsign | THY2408 |
|---|---|
| Flight time | N/A |
| Altitude | 35000 |
| Route | RATVU1D/35L RATVU UT35 BABSA |
| Aircraft | A321/M-SDE3FGHIRWY/LB1 |
Departure
| Time | 2026-05-04 16:41 |
|---|---|
| Airport | İstanbul Airport (LTFM) |
Arrival
| Time | N/A |
|---|---|
| Airport | Antalya International Airport (LTAI) |
| Time | Latitude | Longitude | Altitude | Speed | Heading |
|---|---|---|---|---|---|
| 2026-05-04 16:15 | 41.27555 | 28.73326 | 310 ft | 0 kts | 179° |
| 2026-05-04 16:17 | 41.26389 | 28.73594 | 322 ft | 0 kts | 71° |
| 2026-05-04 16:31 | 41.26376 | 28.73544 | 322 ft | 2 kts | 71° |
| 2026-05-04 16:32 | 41.26372 | 28.73486 | 323 ft | 2 kts | 105° |
| 2026-05-04 16:33 | 41.26385 | 28.73450 | 323 ft | 2 kts | 131° |
| 2026-05-04 16:33 | 41.26409 | 28.73426 | 323 ft | 2 kts | 156° |
| 2026-05-04 16:34 | 41.26418 | 28.73421 | 323 ft | 0 kts | 162° |
| 2026-05-04 16:36 | 41.26395 | 28.73432 | 323 ft | 11 kts | 161° |
| 2026-05-04 16:37 | 41.26213 | 28.73471 | 323 ft | 14 kts | 240° |
| 2026-05-04 16:37 | 41.26217 | 28.73344 | 324 ft | 13 kts | 276° |
| 2026-05-04 16:37 | 41.26218 | 28.73087 | 325 ft | 14 kts | 269° |
| 2026-05-04 16:38 | 41.26215 | 28.72823 | 325 ft | 14 kts | 269° |
| 2026-05-04 16:39 | 41.26271 | 28.72520 | 325 ft | 0 kts | 0° |
| 2026-05-04 16:40 | 41.26883 | 28.72507 | 321 ft | 108 kts | 359° |
| 2026-05-04 16:41 | 41.29002 | 28.72468 | 820 ft | 168 kts | 358° |
| 2026-05-04 16:41 | 41.32468 | 28.72499 | 2563 ft | 180 kts | 359° |
| 2026-05-04 16:42 | 41.36662 | 28.71844 | 3580 ft | 234 kts | 325° |
| 2026-05-04 16:43 | 41.38187 | 28.67920 | 4737 ft | 263 kts | 274° |
| 2026-05-04 16:43 | 41.38103 | 28.63038 | 6260 ft | 269 kts | 273° |
| 2026-05-04 16:43 | 41.38072 | 28.60524 | 6992 ft | 271 kts | 272° |
| 2026-05-04 16:44 | 41.32352 | 28.54971 | 9590 ft | 311 kts | 179° |
| 2026-05-04 16:45 | 41.27972 | 28.55203 | 10582 ft | 328 kts | 179° |
| 2026-05-04 16:46 | 41.21620 | 28.59194 | 11456 ft | 366 kts | 131° |
| 2026-05-04 16:46 | 41.17928 | 28.64175 | 12190 ft | 389 kts | 131° |
| 2026-05-04 16:47 | 41.14049 | 28.69252 | 13401 ft | 393 kts | 129° |
| 2026-05-04 16:47 | 41.10684 | 28.74868 | 14537 ft | 391 kts | 118° |
| 2026-05-04 16:48 | 41.06217 | 28.84034 | 16184 ft | 399 kts | 118° |
| 2026-05-04 16:48 | 41.04685 | 28.87154 | 16733 ft | 402 kts | 118° |
| 2026-05-04 16:49 | 41.00293 | 28.91809 | 17699 ft | 427 kts | 159° |
| 2026-05-04 16:49 | 40.94308 | 28.91923 | 18755 ft | 436 kts | 186° |
| 2026-05-04 16:50 | 40.88269 | 28.91111 | 19644 ft | 441 kts | 181° |
| 2026-05-04 16:50 | 40.82099 | 28.91268 | 20544 ft | 444 kts | 174° |
| 2026-05-04 16:51 | 40.75907 | 28.91790 | 21360 ft | 450 kts | 174° |
| 2026-05-04 16:51 | 40.72793 | 28.92053 | 21749 ft | 453 kts | 174° |
| 2026-05-04 16:51 | 40.66466 | 28.92572 | 22507 ft | 458 kts | 174° |
| 2026-05-04 16:52 | 40.60078 | 28.93086 | 23233 ft | 463 kts | 174° |
| 2026-05-04 16:52 | 40.56882 | 28.93593 | 23566 ft | 463 kts | 165° |
| 2026-05-04 16:53 | 40.51038 | 28.96820 | 24255 ft | 457 kts | 144° |
| 2026-05-04 16:53 | 40.43046 | 29.03740 | 25259 ft | 463 kts | 142° |
| 2026-05-04 16:54 | 40.40368 | 29.06055 | 25589 ft | 465 kts | 142° |
| 2026-05-04 16:55 | 40.29401 | 29.15406 | 26848 ft | 474 kts | 142° |
| 2026-05-04 16:55 | 40.23859 | 29.20100 | 27432 ft | 478 kts | 142° |
| 2026-05-04 16:56 | 40.18088 | 29.24467 | 28079 ft | 484 kts | 149° |
| 2026-05-04 16:56 | 40.08670 | 29.29305 | 29158 ft | 486 kts | 155° |
| 2026-05-04 16:57 | 40.05487 | 29.30802 | 29503 ft | 485 kts | 155° |
| 2026-05-04 16:57 | 39.99170 | 29.33787 | 30203 ft | 484 kts | 155° |
| 2026-05-04 16:58 | 39.89708 | 29.38340 | 31245 ft | 481 kts | 152° |
| 2026-05-04 16:58 | 39.86616 | 29.40030 | 31550 ft | 480 kts | 152° |
| 2026-05-04 16:59 | 39.80454 | 29.43434 | 32126 ft | 480 kts | 152° |
| 2026-05-04 17:00 | 39.68171 | 29.50187 | 33203 ft | 480 kts | 153° |
| 2026-05-04 17:00 | 39.58872 | 29.55087 | 33799 ft | 484 kts | 156° |